sim
Sign-in with your pilot id or email,
or register
Callsign
Passwort

Schedule Details

Flight Number: EWG1915 (1)
Departure: Dusseldorf International Airport (EDDL) at 11:35
Arrival: Munich Airport (EDDM) at 12:50
Route: Eurowings Passenger Schedule. Enter filed route here before submitting Pirep.

Weather Information
Getting current METAR information for EDDL 211250Z VRB04KT CAVOK 26/06 Q1015 NOSIG
Getting current METAR information for EDDM 211250Z 03004KT 340V140 CAVOK 23/12 Q1016 NOSIG

Schedule Frequency

Route Map